Time;durP1;ratioP1;P1;durP2;ratioP2;P2;SDS_P1;SDS_P2;PMS_P1;PMS_P2;Temp;Humidity;BMP_temperature;BMP_pressure;BME280_temperature;BME280_humidity;BME280_pressure;Samples;Min_cycle;Max_cycle;Signal;HPM_P1;HPM_P2
2022/05/19 00:00:23;;;;;;;6.70;4.40;;;19.30;78.90;;;;;;5008720;28;20065;-89
2022/05/19 00:02:49;;;;;;;10.85;4.60;;;19.40;79.00;;;;;;5004013;28;20030;-88
2022/05/19 00:05:15;;;;;;;6.93;4.32;;;19.30;79.10;;;;;;4994407;28;20113;-88
2022/05/19 00:07:41;;;;;;;6.38;3.92;;;19.40;78.90;;;;;;4999020;28;20064;-88
2022/05/19 00:10:07;;;;;;;6.25;4.10;;;19.30;78.90;;;;;;4992607;28;20123;-88
2022/05/19 00:12:32;;;;;;;6.13;4.40;;;19.30;78.90;;;;;;5007213;28;20080;-88
2022/05/19 00:14:58;;;;;;;5.60;4.28;;;19.30;79.20;;;;;;4992811;28;20030;-88
2022/05/19 00:17:24;;;;;;;7.55;4.47;;;19.30;78.90;;;;;;5002211;28;20367;-88
2022/05/19 00:19:51;;;;;;;8.50;4.00;;;19.30;79.00;;;;;;5009219;28;20149;-88
2022/05/19 00:22:16;;;;;;;7.07;4.60;;;19.20;79.20;;;;;;4994110;28;20515;-88
2022/05/19 00:24:44;;;;;;;5.40;3.95;;;19.10;79.20;;;;;;4995600;28;20034;-88
2022/05/19 00:27:13;;;;;;;6.35;4.32;;;19.10;79.40;;;;;;5004053;28;20034;-88
2022/05/19 00:29:41;;;;;;;7.10;4.43;;;19.10;79.30;;;;;;5011763;28;20477;-88
2022/05/19 00:32:07;;;;;;;9.77;4.43;;;19.20;79.20;;;;;;4993833;28;20030;-88
2022/05/19 00:34:32;;;;;;;6.82;4.47;;;19.20;79.30;;;;;;4994779;28;20551;-87
2022/05/19 00:37:00;;;;;;;7.50;4.30;;;19.20;78.90;;;;;;5009717;28;20033;-87
2022/05/19 00:39:27;;;;;;;6.43;3.70;;;19.20;78.80;;;;;;5010286;28;20029;-87
2022/05/19 00:44:40;;;;;;;6.88;4.47;;;19.10;79.20;;;;;;5010250;28;20089;-88
2022/05/19 00:47:31;;;;;;;6.07;4.32;;;19.20;79.00;;;;;;4996516;28;20042;-88
2022/05/19 00:49:57;;;;;;;6.00;4.28;;;19.10;79.10;;;;;;4994763;28;20100;-88
2022/05/19 00:52:39;;;;;;;7.03;4.35;;;19.00;79.30;;;;;;4994976;28;20030;-88
2022/05/19 00:55:07;;;;;;;9.80;3.95;;;19.00;79.50;;;;;;4994477;28;20042;-88
2022/05/19 00:57:37;;;;;;;8.38;4.63;;;19.00;79.30;;;;;;4992075;28;20504;-87
2022/05/19 01:00:18;;;;;;;7.80;4.70;;;19.00;79.30;;;;;;4994389;28;20188;-88
2022/05/19 01:02:50;;;;;;;9.40;4.87;;;19.00;79.10;;;;;;4994003;28;20034;-88
2022/05/19 01:05:30;;;;;;;5.97;3.92;;;19.00;79.20;;;;;;4992332;28;20033;-87
2022/05/19 01:08:12;;;;;;;7.50;4.43;;;18.90;79.30;;;;;;4992109;28;20428;-88
2022/05/19 01:10:39;;;;;;;8.80;4.70;;;19.00;79.00;;;;;;4993530;28;20778;-88
2022/05/19 01:13:06;;;;;;;7.75;4.43;;;18.90;79.10;;;;;;4997440;28;20041;-88
2022/05/19 01:15:40;;;;;;;5.70;4.05;;;19.00;79.20;;;;;;4998438;28;20493;-88
2022/05/19 01:18:09;;;;;;;7.47;4.22;;;19.00;79.00;;;;;;5017671;28;20029;-88
2022/05/19 01:20:35;;;;;;;6.50;3.92;;;19.00;79.10;;;;;;5012220;28;20386;-88
2022/05/19 01:23:20;;;;;;;7.30;4.43;;;19.00;79.10;;;;;;5008377;28;20026;-88
2022/05/19 01:26:18;;;;;;;7.05;4.63;;;19.00;79.00;;;;;;4992499;28;20034;-88
2022/05/19 01:28:46;;;;;;;7.78;4.40;;;18.90;79.10;;;;;;4995816;28;20041;-89
2022/05/19 01:31:35;;;;;;;6.90;4.35;;;19.00;78.90;;;;;;4992706;28;20034;-88
2022/05/19 01:34:02;;;;;;;6.35;4.20;;;18.90;79.10;;;;;;4993875;28;20442;-88
2022/05/19 01:36:30;;;;;;;5.45;3.72;;;18.90;79.30;;;;;;4989926;28;20022;-88
2022/05/19 01:39:20;;;;;;;7.97;4.32;;;18.90;79.40;;;;;;5003732;28;20031;-88
2022/05/19 01:42:05;;;;;;;7.18;4.13;;;18.80;79.20;;;;;;4989104;28;20052;-88
2022/05/19 01:44:49;;;;;;;10.30;4.50;;;18.80;79.30;;;;;;5014666;28;20065;-88
2022/05/19 01:47:30;;;;;;;8.25;4.30;;;18.80;79.40;;;;;;5009282;28;20030;-88
2022/05/19 01:50:09;;;;;;;7.18;4.38;;;18.80;79.50;;;;;;5026815;28;20392;-88
2022/05/19 01:52:45;;;;;;;6.55;4.28;;;18.80;79.50;;;;;;5012288;28;20096;-88
2022/05/19 01:55:27;;;;;;;6.57;4.50;;;18.80;79.20;;;;;;5008684;28;20477;-89
2022/05/19 01:57:59;;;;;;;6.30;3.97;;;18.70;79.70;;;;;;4993378;28;20057;-89
2022/05/19 02:00:27;;;;;;;7.95;4.38;;;18.70;79.80;;;;;;4988713;28;20049;-88
2022/05/19 02:03:15;;;;;;;6.10;4.13;;;18.60;79.90;;;;;;5010501;28;20139;-88
2022/05/19 02:06:02;;;;;;;7.00;4.50;;;18.60;80.00;;;;;;5009436;28;20556;-88
2022/05/19 02:08:39;;;;;;;6.63;5.05;;;18.60;80.10;;;;;;5006594;28;20026;-88
2022/05/19 02:11:09;;;;;;;9.88;4.65;;;18.60;80.00;;;;;;5007428;28;20477;-89
2022/05/19 02:13:36;;;;;;;6.43;4.38;;;18.60;80.10;;;;;;4993160;28;20075;-88
2022/05/19 02:16:04;;;;;;;8.15;4.90;;;18.50;80.30;;;;;;4994207;28;20061;-88
2022/05/19 02:18:32;;;;;;;9.23;4.78;;;18.50;80.50;;;;;;4990202;28;20104;-89
2022/05/19 02:21:00;;;;;;;7.07;4.20;;;18.50;80.40;;;;;;4996417;28;20059;-89
2022/05/19 02:23:26;;;;;;;6.72;4.47;;;18.40;80.80;;;;;;4996526;28;20030;-88
2022/05/19 02:26:00;;;;;;;8.13;4.70;;;18.40;80.80;;;;;;5001948;28;20026;-89
2022/05/19 02:28:31;;;;;;;8.35;5.07;;;18.50;80.70;;;;;;4998207;28;20492;-88
2022/05/19 02:30:57;;;;;;;;;;;18.50;81.00;;;;;;5002442;28;20076;-89
2022/05/19 02:33:23;;;;;;;7.35;4.75;;;18.50;80.90;;;;;;4988917;28;19957;-89
2022/05/19 02:36:01;;;;;;;6.30;4.03;;;18.50;81.00;;;;;;4992368;28;20774;-88
2022/05/19 02:38:37;;;;;;;9.50;4.93;;;18.50;81.00;;;;;;5006594;28;20037;-88
2022/05/19 02:41:03;;;;;;;6.63;4.43;;;18.50;80.90;;;;;;4994221;28;20026;-87
2022/05/19 02:43:31;;;;;;;8.98;4.75;;;18.40;80.90;;;;;;4993674;28;20033;-88
2022/05/19 02:45:57;;;;;;;7.68;4.68;;;18.50;80.80;;;;;;5026556;28;20030;-89
2022/05/19 02:48:23;;;;;;;6.43;4.03;;;18.40;80.70;;;;;;4993535;28;20030;-88
2022/05/19 02:50:49;;;;;;;7.35;4.35;;;18.50;80.60;;;;;;4987440;28;20038;-87
2022/05/19 02:53:16;;;;;;;7.53;4.78;;;18.50;80.50;;;;;;4990680;28;20061;-88
2022/05/19 02:55:44;;;;;;;7.70;4.68;;;18.50;80.20;;;;;;5011787;28;20030;-87
2022/05/19 02:58:12;;;;;;;6.88;3.97;;;18.40;80.70;;;;;;5013181;28;20029;-87
2022/05/19 03:00:40;;;;;;;11.30;4.70;;;18.40;80.40;;;;;;4993879;28;20037;-88
2022/05/19 03:03:26;;;;;;;7.47;5.00;;;18.40;80.70;;;;;;4993074;28;20022;-87
2022/05/19 03:06:07;;;;;;;7.45;4.57;;;18.40;81.10;;;;;;5008866;28;20046;-87
2022/05/19 03:08:36;;;;;;;7.18;4.60;;;18.30;80.90;;;;;;4995832;28;20525;-88
2022/05/19 03:11:02;;;;;;;10.50;4.25;;;18.20;81.00;;;;;;4991305;28;20085;-87
2022/05/19 03:13:28;;;;;;;8.48;5.10;;;18.20;81.20;;;;;;4993884;28;20022;-88
2022/05/19 03:15:55;;;;;;;8.27;4.75;;;18.20;81.30;;;;;;5027649;28;20026;-88
2022/05/19 03:18:21;;;;;;;6.93;4.57;;;18.10;81.50;;;;;;5008915;28;20076;-88
2022/05/19 03:20:47;;;;;;;8.27;5.13;;;18.10;81.60;;;;;;5010147;28;20061;-88
2022/05/19 03:23:13;;;;;;;8.13;5.93;;;18.10;81.60;;;;;;4991723;28;20428;-87
2022/05/19 03:25:41;;;;;;;7.65;4.90;;;18.00;81.60;;;;;;4996396;28;20030;-88
2022/05/19 03:28:07;;;;;;;7.82;5.07;;;18.00;81.90;;;;;;4998814;28;20025;-88
2022/05/19 03:30:35;;;;;;;11.38;5.05;;;18.00;82.20;;;;;;5007502;28;20034;-88
2022/05/19 03:33:02;;;;;;;8.85;5.47;;;18.00;82.20;;;;;;5007373;28;20026;-89
2022/05/19 03:35:27;;;;;;;6.35;4.68;;;18.00;82.30;;;;;;4995798;28;20033;-88
2022/05/19 03:37:53;;;;;;;7.00;5.07;;;17.90;82.50;;;;;;4995073;28;20025;-88
2022/05/19 03:40:18;;;;;;;7.88;5.00;;;17.90;82.60;;;;;;5011792;28;20026;-88
2022/05/19 03:42:44;;;;;;;8.30;5.15;;;17.90;82.70;;;;;;4996691;28;20120;-88
2022/05/19 03:45:10;;;;;;;11.10;5.05;;;17.80;82.70;;;;;;4999983;28;20081;-88
2022/05/19 03:47:36;;;;;;;6.93;5.30;;;17.90;82.60;;;;;;4989317;28;20045;-88
2022/05/19 03:50:01;;;;;;;9.60;5.78;;;17.80;82.90;;;;;;5020479;28;20025;-88
2022/05/19 03:52:27;;;;;;;7.05;5.35;;;17.90;82.80;;;;;;4991464;28;20288;-88
2022/05/19 03:54:53;;;;;;;8.23;5.57;;;17.90;82.70;;;;;;4995540;28;20026;-88
2022/05/19 03:57:23;;;;;;;7.45;5.50;;;17.80;83.00;;;;;;4996440;28;20030;-88
2022/05/19 03:59:49;;;;;;;10.25;5.25;;;17.80;82.90;;;;;;5002810;28;20026;-88
2022/05/19 04:02:15;;;;;;;7.18;5.03;;;17.80;83.10;;;;;;5007834;28;20061;-88
2022/05/19 04:04:40;;;;;;;8.60;5.80;;;17.70;83.30;;;;;;5014767;28;20053;-88
2022/05/19 04:07:06;;;;;;;8.13;5.25;;;17.80;83.00;;;;;;5010333;28;20057;-88
2022/05/19 04:09:32;;;;;;;8.18;5.78;;;17.90;82.90;;;;;;4996025;28;20129;-88
2022/05/19 04:12:05;;;;;;;9.30;5.97;;;17.80;83.10;;;;;;4997897;28;20033;-88
2022/05/19 04:14:34;;;;;;;10.32;5.35;;;17.80;83.10;;;;;;5009667;28;20100;-88
2022/05/19 04:17:00;;;;;;;8.13;5.60;;;17.80;83.10;;;;;;5009158;28;20116;-88
2022/05/19 04:19:26;;;;;;;10.15;5.82;;;17.80;83.10;;;;;;4987700;28;20046;-89
2022/05/19 04:21:51;;;;;;;8.63;5.43;;;17.80;83.20;;;;;;4998395;28;20495;-88
2022/05/19 04:24:26;;;;;;;9.63;5.35;;;17.80;83.20;;;;;;5020790;28;20444;-88
2022/05/19 04:26:51;;;;;;;10.75;5.85;;;17.80;83.20;;;;;;4997635;28;20136;-86
2022/05/19 04:29:17;;;;;;;10.80;5.85;;;17.90;83.10;;;;;;4995342;28;20030;-87
2022/05/19 04:31:42;;;;;;;8.73;5.30;;;17.90;83.00;;;;;;5007166;28;20036;-87
2022/05/19 04:34:10;;;;;;;7.30;5.38;;;18.00;82.60;;;;;;5004624;28;20026;-87
2022/05/19 04:36:36;;;;;;;7.97;5.40;;;18.00;82.50;;;;;;4995401;28;20453;-87
2022/05/19 04:39:02;;;;;;;8.32;5.38;;;18.00;82.70;;;;;;5012259;28;20041;-91
2022/05/19 04:41:30;;;;;;;7.53;5.32;;;18.00;82.30;;;;;;4993955;28;20056;-90
2022/05/19 04:43:56;;;;;;;7.50;5.35;;;18.20;81.90;;;;;;5004546;28;20034;-91
2022/05/19 04:46:22;;;;;;;9.27;5.50;;;18.20;82.10;;;;;;4994858;28;20398;-88
2022/05/19 04:48:47;;;;;;;7.88;4.80;;;18.30;81.90;;;;;;4992670;28;20030;-89
2022/05/19 04:51:15;;;;;;;9.27;5.55;;;18.30;81.60;;;;;;4991479;28;20026;-90
2022/05/19 04:53:41;;;;;;;8.13;5.10;;;18.40;81.10;;;;;;4992788;28;20057;-92
2022/05/19 04:56:06;;;;;;;7.72;5.35;;;18.50;80.40;;;;;;4991782;28;20022;-90
2022/05/19 04:58:32;;;;;;;6.78;4.90;;;18.60;80.10;;;;;;5007245;28;20030;-88
2022/05/19 05:01:00;;;;;;;7.53;4.95;;;18.70;80.20;;;;;;4991806;28;20354;-88
2022/05/19 05:03:27;;;;;;;8.60;4.82;;;18.70;80.30;;;;;;5006728;28;20050;-88
2022/05/19 05:05:52;;;;;;;6.32;4.57;;;18.80;79.30;;;;;;5008689;28;20029;-87
2022/05/19 05:08:18;;;;;;;8.05;5.10;;;18.90;79.20;;;;;;5014259;28;20056;-87
2022/05/19 05:10:44;;;;;;;6.03;4.60;;;19.00;79.60;;;;;;4995943;28;20029;-87
2022/05/19 05:13:13;;;;;;;7.65;4.88;;;19.10;78.90;;;;;;4997194;28;20125;-88
2022/05/19 05:15:40;;;;;;;6.75;4.53;;;19.20;78.30;;;;;;4993337;28;20113;-88
2022/05/19 05:18:06;;;;;;;7.22;4.97;;;19.30;78.50;;;;;;5005778;28;20035;-88
2022/05/19 05:20:32;;;;;;;5.90;4.30;;;19.30;78.40;;;;;;4999504;28;20121;-88
2022/05/19 05:22:58;;;;;;;6.90;4.70;;;19.40;78.10;;;;;;4994186;28;20061;-88
2022/05/19 05:25:24;;;;;;;7.65;4.60;;;19.50;77.10;;;;;;5010896;28;20025;-88
2022/05/19 05:27:49;;;;;;;8.77;4.78;;;19.50;77.10;;;;;;5006592;28;20489;-86
2022/05/19 05:30:15;;;;;;;8.82;4.88;;;19.60;77.30;;;;;;5010642;28;20032;-87
2022/05/19 05:32:41;;;;;;;8.38;4.65;;;19.60;77.50;;;;;;5000582;28;20041;-88
2022/05/19 05:35:08;;;;;;;6.10;4.00;;;19.70;77.40;;;;;;5000505;28;20073;-87
2022/05/19 05:37:34;;;;;;;10.38;4.80;;;19.70;77.40;;;;;;5005038;28;20018;-88
2022/05/19 05:40:01;;;;;;;6.38;4.32;;;19.70;77.00;;;;;;5004899;28;20023;-88
2022/05/19 05:42:27;;;;;;;5.97;4.47;;;19.90;77.20;;;;;;4991927;28;20121;-87
2022/05/19 05:44:52;;;;;;;6.50;3.55;;;19.90;76.30;;;;;;5008204;28;20472;-87
2022/05/19 05:47:18;;;;;;;6.72;3.78;;;20.00;76.70;;;;;;5012247;28;20076;-87
2022/05/19 05:49:44;;;;;;;6.57;3.90;;;20.00;76.30;;;;;;5015394;28;20022;-88
2022/05/19 05:52:12;;;;;;;6.78;3.78;;;20.10;76.50;;;;;;5008823;28;20098;-88
2022/05/19 05:54:37;;;;;;;6.70;4.13;;;20.20;76.00;;;;;;5010939;28;20054;-88
2022/05/19 05:57:03;;;;;;;7.63;3.90;;;20.40;75.40;;;;;;4994591;28;20525;-88
2022/05/19 05:59:29;;;;;;;6.88;3.90;;;20.50;75.50;;;;;;4994358;28;20058;-88
2022/05/19 06:01:54;;;;;;;7.35;3.72;;;20.50;75.60;;;;;;4994336;28;20091;-87
2022/05/19 06:04:20;;;;;;;8.18;3.63;;;20.60;73.30;;;;;;4997961;28;20148;-87
2022/05/19 06:06:46;;;;;;;7.32;3.97;;;20.80;74.60;;;;;;5035101;28;20026;-87
2022/05/19 06:09:15;;;;;;;6.22;3.58;;;20.90;74.20;;;;;;5011291;28;20036;-88
2022/05/19 06:11:42;;;;;;;8.25;3.58;;;21.00;72.10;;;;;;5011277;28;20115;-87
2022/05/19 06:14:08;;;;;;;7.35;3.58;;;21.10;72.10;;;;;;5005475;28;20036;-88
2022/05/19 06:16:34;;;;;;;5.35;3.38;;;21.20;72.00;;;;;;5010832;28;20030;-86
2022/05/19 06:18:59;;;;;;;7.93;3.60;;;21.30;71.10;;;;;;4994842;28;20473;-87
2022/05/19 06:21:25;;;;;;;5.63;2.88;;;21.50;71.10;;;;;;4994975;28;20095;-88
2022/05/19 06:23:50;;;;;;;4.18;3.10;;;21.50;70.90;;;;;;5009727;28;20052;-88
2022/05/19 06:26:16;;;;;;;5.28;3.17;;;21.50;70.80;;;;;;4990919;28;20026;-88
2022/05/19 06:28:41;;;;;;;4.30;2.95;;;21.70;70.60;;;;;;4995187;28;20036;-88
2022/05/19 06:31:07;;;;;;;5.45;2.70;;;21.70;69.40;;;;;;5010476;28;20076;-88
2022/05/19 06:33:35;;;;;;;5.25;3.05;;;21.80;69.60;;;;;;5009699;28;20030;-88
2022/05/19 06:36:02;;;;;;;5.03;2.95;;;22.00;69.00;;;;;;4978465;28;20122;-88
2022/05/19 06:38:28;;;;;;;4.70;2.80;;;22.20;68.10;;;;;;4994385;28;20056;-88
2022/05/19 06:42:00;;;;;;;4.97;2.88;;;22.30;67.20;;;;;;4994663;28;20029;-88
2022/05/19 06:43:40;;;;;;;7.55;2.83;;;22.50;69.70;;;;;;5012035;28;20026;-88
2022/05/19 06:46:05;;;;;;;4.55;2.75;;;22.60;66.90;;;;;;4994695;28;20030;-88
2022/05/19 06:48:30;;;;;;;4.70;2.95;;;22.70;66.70;;;;;;5010168;28;20029;-88
2022/05/19 06:50:56;;;;;;;4.50;2.90;;;22.90;66.00;;;;;;5010373;28;20574;-87
2022/05/19 06:53:21;;;;;;;3.83;2.80;;;22.90;64.70;;;;;;5007624;28;20108;-88
2022/05/19 06:55:47;;;;;;;5.60;2.70;;;23.10;65.20;;;;;;5003617;28;20021;-88
2022/05/19 06:58:15;;;;;;;5.28;2.53;;;23.40;66.20;;;;;;5028384;28;20023;-89
2022/05/19 07:00:40;;;;;;;5.47;2.65;;;23.40;63.90;;;;;;4993484;28;20393;-88
2022/05/19 07:03:06;;;;;;;5.03;2.70;;;23.50;63.60;;;;;;4991718;28;20030;-88
2022/05/19 07:05:36;;;;;;;4.85;2.50;;;23.50;63.40;;;;;;4992670;28;20132;-88
2022/05/19 07:08:02;;;;;;;4.10;2.72;;;23.80;62.70;;;;;;4993560;28;20033;-87
2022/05/19 07:10:28;;;;;;;4.75;2.40;;;23.80;61.10;;;;;;4997928;28;20084;-88
2022/05/19 07:12:55;;;;;;;5.05;2.25;;;23.90;62.70;;;;;;4997846;28;20481;-87
2022/05/19 07:15:21;;;;;;;3.30;2.38;;;23.90;60.40;;;;;;4996903;28;20129;-87
2022/05/19 07:17:47;;;;;;;3.67;2.53;;;23.70;60.80;;;;;;4994154;28;20040;-87
2022/05/19 07:22:57;;;;;;;7.18;2.78;;;23.60;62.50;;;;;;5013398;28;20076;-88
2022/05/19 07:25:23;;;;;;;3.97;2.40;;;23.70;61.00;;;;;;4995636;28;20026;-87
2022/05/19 07:27:49;;;;;;;5.35;2.40;;;23.90;61.30;;;;;;4995296;28;20071;-88
2022/05/19 07:30:15;;;;;;;4.20;2.45;;;24.10;62.10;;;;;;5013947;28;20030;-89
2022/05/19 07:32:41;;;;;;;3.85;2.30;;;24.30;60.30;;;;;;5011260;28;20030;-88
2022/05/19 07:35:09;;;;;;;4.68;2.28;;;24.50;60.50;;;;;;5009016;28;20439;-88
2022/05/19 07:37:34;;;;;;;2.63;2.20;;;24.60;60.60;;;;;;4996827;28;20029;-88
2022/05/19 07:40:00;;;;;;;4.32;2.42;;;24.60;58.00;;;;;;4995585;28;20033;-87
2022/05/19 07:42:26;;;;;;;5.43;2.53;;;24.70;58.10;;;;;;5000648;28;20026;-88
2022/05/19 07:44:52;;;;;;;5.18;2.50;;;24.70;58.20;;;;;;5002262;28;20076;-87
2022/05/19 07:47:19;;;;;;;3.80;2.22;;;24.90;57.90;;;;;;4996459;28;20042;-86
2022/05/19 07:49:45;;;;;;;4.47;2.33;;;25.00;57.20;;;;;;5008498;28;20021;-86
2022/05/19 07:52:11;;;;;;;4.10;2.60;;;25.00;57.20;;;;;;4999879;28;20049;-89
2022/05/19 07:54:37;;;;;;;3.97;2.28;;;25.20;56.50;;;;;;5015267;28;20097;-90
2022/05/19 07:57:04;;;;;;;4.30;2.20;;;25.40;56.90;;;;;;5005512;28;20033;-89
2022/05/19 07:59:30;;;;;;;4.25;2.30;;;25.50;56.90;;;;;;5010081;28;20021;-89
2022/05/19 08:01:56;;;;;;;5.65;2.45;;;25.90;55.30;;;;;;4995791;28;20362;-88
2022/05/19 08:04:26;;;;;;;5.88;2.17;;;25.80;54.70;;;;;;5016572;28;20088;-88
2022/05/19 08:06:52;;;;;;;4.10;2.10;;;25.80;52.90;;;;;;4998410;28;20442;-87
2022/05/19 08:12:04;;;;;;;3.33;2.10;;;26.00;53.20;;;;;;5011799;28;20040;-86
2022/05/19 08:17:17;;;;;;;3.67;2.00;;;26.00;51.80;;;;;;5008187;28;20133;-86
2022/05/19 08:19:45;;;;;;;3.17;2.00;;;26.30;51.20;;;;;;5003116;28;20510;-82
2022/05/19 08:22:11;;;;;;;4.72;2.10;;;26.20;49.50;;;;;;5006879;28;20081;-86
2022/05/19 08:24:37;;;;;;;2.55;1.50;;;26.30;50.50;;;;;;4999332;28;20493;-86
2022/05/19 08:27:03;;;;;;;2.50;1.80;;;26.50;49.80;;;;;;4988082;28;20113;-86
2022/05/19 08:29:29;;;;;;;3.45;2.17;;;26.60;48.10;;;;;;4992558;28;20030;-86
2022/05/19 08:31:55;;;;;;;4.82;2.00;;;26.70;50.60;;;;;;5012121;28;20037;-86
2022/05/19 08:34:20;;;;;;;3.85;1.83;;;27.10;49.90;;;;;;5010844;28;20026;-85
2022/05/19 08:36:46;;;;;;;2.97;1.92;;;27.30;47.40;;;;;;5011837;28;20033;-84
2022/05/19 08:39:13;;;;;;;4.38;1.75;;;26.90;47.80;;;;;;5013510;28;20026;-86
2022/05/19 08:41:45;;;;;;;3.83;1.90;;;27.00;48.20;;;;;;5011272;28;20042;-86
2022/05/19 08:44:16;;;;;;;2.90;1.70;;;26.90;49.70;;;;;;5012397;28;20439;-86
2022/05/19 08:46:45;;;;;;;4.72;1.75;;;26.70;51.20;;;;;;5010036;28;20034;-87
2022/05/19 08:49:13;;;;;;;6.47;2.03;;;26.70;51.40;;;;;;5011292;28;20026;-86
2022/05/19 08:51:44;;;;;;;5.35;1.85;;;26.60;50.50;;;;;;5002846;28;20160;-85
2022/05/19 08:54:16;;;;;;;2.90;1.80;;;26.60;50.00;;;;;;5007173;28;20046;-84
2022/05/19 08:56:53;;;;;;;4.97;2.10;;;26.60;50.20;;;;;;4995848;28;20076;-85
2022/05/19 08:59:37;;;;;;;3.20;2.17;;;26.40;51.20;;;;;;4996011;28;20061;-85
2022/05/19 09:02:12;;;;;;;3.20;2.25;;;26.60;51.60;;;;;;4992370;28;20511;-86
2022/05/19 09:05:06;;;;;;;3.38;2.05;;;27.00;52.10;;;;;;5001735;28;20491;-85
2022/05/19 09:07:58;;;;;;;2.97;1.88;;;26.80;49.50;;;;;;5006959;28;20345;-86
2022/05/19 09:10:45;;;;;;;5.95;2.20;;;26.70;51.80;;;;;;4990376;28;20160;-85
2022/05/19 09:13:16;;;;;;;3.78;2.08;;;26.60;49.50;;;;;;4988137;28;20030;-86
2022/05/19 09:15:44;;;;;;;4.10;2.25;;;27.00;52.00;;;;;;5006187;28;20144;-87
2022/05/19 09:18:12;;;;;;;5.57;2.10;;;27.70;49.70;;;;;;4983853;28;20720;-86
2022/05/19 09:20:49;;;;;;;4.38;1.95;;;27.90;50.20;;;;;;5006707;28;20037;-85
2022/05/19 09:23:15;;;;;;;3.83;1.67;;;28.00;47.00;;;;;;5003063;28;20041;-86
2022/05/19 09:25:48;;;;;;;5.20;2.17;;;27.90;48.40;;;;;;4983244;28;20027;-86
2022/05/19 09:28:14;;;;;;;3.00;1.77;;;28.00;47.80;;;;;;4998424;28;20026;-86
2022/05/19 09:30:53;;;;;;;2.67;1.85;;;28.40;47.70;;;;;;5030814;28;20040;-86
2022/05/19 09:33:22;;;;;;;3.80;1.65;;;28.40;45.40;;;;;;4990248;28;20033;-86
2022/05/19 09:35:53;;;;;;;3.05;1.77;;;28.60;46.30;;;;;;4993671;28;20108;-86
2022/05/19 09:38:26;;;;;;;;;;;28.90;46.70;;;;;;5011433;28;20388;-87
2022/05/19 09:40:58;;;;;;;3.75;2.00;;;28.90;43.30;;;;;;4998035;28;19932;-86
2022/05/19 09:43:30;;;;;;;3.92;1.90;;;29.00;44.80;;;;;;4993483;28;20065;-86
2022/05/19 09:46:11;;;;;;;2.47;1.70;;;28.90;43.80;;;;;;5003837;28;20052;-86
2022/05/19 09:48:44;;;;;;;2.90;1.60;;;28.80;44.50;;;;;;4990086;28;20032;-86
2022/05/19 09:51:13;;;;;;;3.72;1.50;;;28.70;46.40;;;;;;4996105;28;20048;-86
2022/05/19 09:53:52;;;;;;;2.47;1.50;;;29.00;43.00;;;;;;5011641;28;20084;-86
2022/05/19 09:56:20;;;;;;;4.68;1.98;;;29.20;46.10;;;;;;5009582;28;20022;-86
2022/05/19 09:58:49;;;;;;;2.40;1.60;;;29.30;45.30;;;;;;5010644;28;20112;-86
2022/05/19 10:01:28;;;;;;;4.03;1.52;;;28.90;43.20;;;;;;4994245;28;20397;-85
2022/05/19 10:03:58;;;;;;;3.15;1.50;;;28.90;44.00;;;;;;5030275;28;20475;-86
2022/05/19 10:06:52;;;;;;;3.53;1.67;;;28.60;42.60;;;;;;4991742;28;20490;-86
2022/05/19 10:09:31;;;;;;;4.50;1.75;;;28.70;43.40;;;;;;4993553;28;20033;-86
2022/05/19 10:12:24;;;;;;;2.75;1.60;;;28.60;44.00;;;;;;4992750;28;20033;-85
2022/05/19 10:15:02;;;;;;;2.15;1.42;;;29.00;43.70;;;;;;5007998;28;20029;-85
2022/05/19 10:17:51;;;;;;;4.22;1.60;;;28.70;42.90;;;;;;5003974;28;20022;-85
2022/05/19 10:20:25;;;;;;;4.47;1.98;;;28.60;41.80;;;;;;5020229;28;20030;-85
2022/05/19 10:22:54;;;;;;;2.42;1.58;;;28.90;42.00;;;;;;4991893;28;20029;-86
2022/05/19 10:25:50;;;;;;;3.33;1.70;;;29.40;44.70;;;;;;5006140;28;20030;-86
2022/05/19 10:31:50;;;;;;;2.35;1.60;;;29.50;42.40;;;;;;5010834;28;20045;-85
2022/05/19 10:34:53;;;;;;;2.33;1.80;;;29.50;43.50;;;;;;5010184;28;20490;-85
2022/05/19 10:37:31;;;;;;;3.13;1.67;;;29.60;42.70;;;;;;5005685;28;20061;-85
2022/05/19 10:40:21;;;;;;;2.97;1.83;;;29.80;44.10;;;;;;4990127;28;20029;-86
2022/05/19 10:42:58;;;;;;;3.38;1.50;;;29.80;41.50;;;;;;5011022;28;20040;-85
2022/05/19 10:45:23;;;;;;;3.10;1.80;;;30.00;43.00;;;;;;4993118;28;20124;-86
2022/05/19 10:48:25;;;;;;;4.05;1.80;;;30.10;41.20;;;;;;5005782;28;20148;-85
2022/05/19 10:51:06;;;;;;;4.97;1.85;;;30.30;42.00;;;;;;5004996;28;20053;-85
2022/05/19 10:54:04;;;;;;;3.00;1.60;;;30.00;40.30;;;;;;5010412;28;20945;-85
2022/05/19 10:56:55;;;;;;;2.55;1.50;;;29.60;40.20;;;;;;4992857;28;20499;-84
2022/05/19 10:59:40;;;;;;;3.42;1.35;;;29.30;41.30;;;;;;4989883;28;20126;-84
2022/05/19 11:02:33;;;;;;;2.95;1.60;;;29.90;40.90;;;;;;5008458;28;20049;-85
2022/05/19 11:05:12;;;;;;;2.92;1.40;;;30.20;42.70;;;;;;5009412;28;20032;-85
2022/05/19 11:07:51;;;;;;;6.17;1.70;;;30.30;39.70;;;;;;4990076;28;20030;-85
2022/05/19 11:10:20;;;;;;;4.93;1.77;;;30.30;38.50;;;;;;5011754;28;20036;-85
2022/05/19 11:13:13;;;;;;;3.65;1.83;;;30.50;42.30;;;;;;5009338;28;20497;-85
2022/05/19 11:16:18;;;;;;;3.40;1.80;;;30.40;37.60;;;;;;5008673;28;20034;-85
2022/05/19 11:18:55;;;;;;;5.47;1.67;;;30.60;39.20;;;;;;5007618;28;20489;-85
2022/05/19 11:21:30;;;;;;;4.10;1.75;;;31.20;39.50;;;;;;5007742;28;20018;-85
2022/05/19 11:24:22;;;;;;;2.80;1.60;;;31.50;39.90;;;;;;4990615;28;20041;-85
2022/05/19 11:27:00;;;;;;;3.60;1.60;;;31.50;37.10;;;;;;5008882;28;20068;-85
2022/05/19 11:29:38;;;;;;;3.38;1.45;;;30.60;39.00;;;;;;5023021;28;20036;-85
2022/05/19 11:32:19;;;;;;;2.15;1.42;;;30.90;40.50;;;;;;5008842;28;20029;-85
2022/05/19 11:35:25;;;;;;;2.67;1.45;;;31.80;38.40;;;;;;5010439;28;20033;-85
2022/05/19 11:38:03;;;;;;;1.85;1.50;;;32.50;36.70;;;;;;4945429;28;20113;-85
2022/05/19 11:40:50;;;;;;;2.08;1.30;;;32.10;36.30;;;;;;4987418;28;20473;-85
2022/05/19 11:43:43;;;;;;;3.55;1.30;;;31.70;37.30;;;;;;5010504;28;20030;-85
2022/05/19 11:46:22;;;;;;;3.53;1.40;;;31.20;35.90;;;;;;5001193;28;20030;-85
2022/05/19 11:55:18;;;;;;;2.83;1.60;;;31.80;36.40;;;;;;5012674;28;20061;-86
2022/05/19 11:58:01;;;;;;;3.47;1.52;;;32.30;37.50;;;;;;5011835;28;20036;-85
2022/05/19 12:00:30;;;;;;;2.70;1.60;;;32.00;37.10;;;;;;4996345;28;20053;-86
2022/05/19 12:03:17;;;;;;;5.72;1.50;;;31.90;35.60;;;;;;5015568;28;20425;-86
2022/05/19 12:05:54;;;;;;;4.03;1.38;;;32.20;36.90;;;;;;4994928;28;20026;-85
2022/05/19 12:08:40;;;;;;;3.20;1.48;;;32.40;35.20;;;;;;4993539;28;20040;-85
2022/05/19 12:11:23;;;;;;;2.50;1.30;;;32.50;34.30;;;;;;5000061;28;20041;-85
2022/05/19 12:14:17;;;;;;;2.75;1.30;;;32.90;34.50;;;;;;5012673;28;20034;-85
2022/05/19 12:16:52;;;;;;;2.60;1.27;;;32.90;34.30;;;;;;4986071;28;20117;-85
2022/05/19 12:19:44;;;;;;;1.65;1.15;;;33.40;33.70;;;;;;5004225;28;20025;-85
2022/05/19 12:22:24;;;;;;;2.03;1.30;;;33.40;35.20;;;;;;4987792;28;20041;-87
2022/05/19 12:25:04;;;;;;;3.20;1.40;;;33.40;34.90;;;;;;4994313;28;20074;-88
2022/05/19 12:27:38;;;;;;;3.38;1.23;;;32.90;33.60;;;;;;4992114;28;20482;-88
2022/05/19 12:33:11;;;;;;;3.10;1.45;;;32.20;35.80;;;;;;4987260;28;20455;-87
2022/05/19 12:35:38;;;;;;;4.65;1.60;;;32.60;38.50;;;;;;5006680;28;20038;-88
2022/05/19 12:38:25;;;;;;;1.95;1.08;;;32.60;37.20;;;;;;5007813;28;20107;-87
2022/05/19 12:40:56;;;;;;;1.88;1.38;;;32.90;35.80;;;;;;4995276;28;20058;-89
2022/05/19 12:43:23;;;;;;;2.42;1.45;;;33.10;37.00;;;;;;4995300;28;20556;-88
2022/05/19 12:45:59;;;;;;;2.20;1.20;;;33.60;34.10;;;;;;5011146;28;20040;-88
2022/05/19 12:48:31;;;;;;;5.07;1.38;;;33.90;33.80;;;;;;5020094;28;20061;-88
2022/05/19 12:51:07;;;;;;;3.13;1.40;;;33.30;34.60;;;;;;5006768;28;20113;-88
2022/05/19 12:54:03;;;;;;;1.75;1.27;;;33.20;34.90;;;;;;4997080;28;20042;-88
2022/05/19 12:56:51;;;;;;;1.70;1.30;;;32.40;34.10;;;;;;5006521;28;20026;-88
2022/05/19 12:59:23;;;;;;;1.90;1.35;;;31.80;36.00;;;;;;5011301;28;20489;-88
2022/05/19 13:01:52;;;;;;;3.55;1.50;;;31.90;35.80;;;;;;5006785;28;20046;-87
2022/05/19 13:04:28;;;;;;;3.03;1.30;;;32.20;36.00;;;;;;4995300;28;20042;-88
2022/05/19 13:07:31;;;;;;;2.63;1.38;;;32.00;35.70;;;;;;5006029;28;20400;-88
2022/05/19 13:10:23;;;;;;;1.48;1.20;;;32.30;35.40;;;;;;4998818;28;20080;-87
2022/05/19 13:12:56;;;;;;;1.73;1.08;;;32.60;35.60;;;;;;5007448;28;20396;-88
2022/05/19 13:15:28;;;;;;;2.00;1.40;;;32.80;34.40;;;;;;4983964;28;20037;-88
2022/05/19 13:17:56;;;;;;;3.17;1.38;;;33.30;35.80;;;;;;5006758;28;20045;-88
2022/05/19 13:20:29;;;;;;;1.92;1.08;;;33.50;33.90;;;;;;5004541;28;20226;-88
2022/05/19 13:23:02;;;;;;;2.63;1.40;;;33.70;31.90;;;;;;4991912;28;20038;-88
2022/05/19 13:25:31;;;;;;;1.50;1.17;;;33.10;35.30;;;;;;4992307;28;20030;-88
2022/05/19 13:30:53;;;;;;;1.70;1.10;;;33.20;35.10;;;;;;5009137;28;20036;-88
2022/05/19 13:33:26;;;;;;;5.82;1.40;;;33.40;34.70;;;;;;5002897;28;20072;-88
2022/05/19 13:36:10;;;;;;;1.88;1.20;;;33.00;35.20;;;;;;5005236;28;20378;-88
2022/05/19 13:38:36;;;;;;;2.85;1.10;;;33.20;34.30;;;;;;5006362;28;20342;-87